Time;durP1;ratioP1;P1;durP2;ratioP2;P2;SDS_P1;SDS_P2;PMS_P1;PMS_P2;Temp;Humidity;BMP_temperature;BMP_pressure;BME280_temperature;BME280_humidity;BME280_pressure;Samples;Min_cycle;Max_cycle;Signal;HPM_P1;HPM_P2
2022/05/20 00:02:12;;;;;;;25.10;23.10;;;;;;;19.98;78.06;101476.97;5078125;28;20223;-68
2022/05/20 00:04:38;;;;;;;25.83;23.63;;;;;;;20.10;79.06;101475.03;5078359;28;20165;-68
2022/05/20 00:07:03;;;;;;;25.47;23.37;;;;;;;20.31;76.35;101469.34;5078049;28;20167;-68
2022/05/20 00:09:28;;;;;;;25.07;23.07;;;;;;;19.96;77.82;101462.06;5077952;28;20173;-69
2022/05/20 00:11:54;;;;;;;26.80;24.00;;;;;;;19.68;78.35;101467.78;5077700;28;20468;-69
2022/05/20 00:14:20;;;;;;;27.00;24.43;;;;;;;19.60;79.32;101477.63;5078629;28;20427;-68
2022/05/20 00:16:46;;;;;;;25.80;23.63;;;;;;;19.98;77.79;101468.19;5078280;28;20407;-69
2022/05/20 00:19:11;;;;;;;27.97;23.90;;;;;;;19.80;78.03;101472.00;5078309;28;20527;-69
2022/05/20 00:21:36;;;;;;;29.20;26.50;;;;;;;19.67;78.49;101466.91;5078726;28;20157;-68
2022/05/20 00:24:02;;;;;;;27.90;25.10;;;;;;;19.27;80.25;101479.91;5078150;28;20299;-69
2022/05/20 00:26:28;;;;;;;28.30;25.70;;;;;;;19.52;79.43;101475.97;5078261;28;20210;-70
2022/05/20 00:28:53;;;;;;;28.07;25.37;;;;;;;19.14;79.80;101465.97;5078483;28;20395;-69
2022/05/20 00:31:22;;;;;;;29.40;26.77;;;;;;;19.37;80.00;101476.19;5077876;28;20492;-68
2022/05/20 00:33:48;;;;;;;27.40;24.80;;;;;;;19.39;79.34;101473.53;5077186;28;20200;-68
2022/05/20 00:36:13;;;;;;;28.07;25.57;;;;;;;19.27;80.08;101480.75;5078511;28;20399;-69
2022/05/20 00:38:39;;;;;;;27.30;24.90;;;;;;;19.19;79.41;101467.66;5077944;28;20169;-70
2022/05/20 00:41:05;;;;;;;28.03;25.50;;;;;;;19.17;79.63;101473.84;5077816;28;20165;-69
2022/05/20 00:43:37;;;;;;;30.40;27.57;;;;;;;19.18;80.14;101476.47;5078212;28;20176;-69
2022/05/20 00:46:05;;;;;;;28.43;26.10;;;;;;;19.04;80.20;101475.81;5077132;28;20636;-69
2022/05/20 00:48:31;;;;;;;31.97;29.07;;;;;;;18.84;80.74;101484.81;5077859;28;20411;-68
2022/05/20 00:51:08;;;;;;;28.23;25.77;;;;;;;18.94;79.03;101488.28;5079206;28;20480;-69
2022/05/20 00:53:56;;;;;;;31.50;28.27;;;;;;;18.84;79.38;101490.09;5078173;28;20426;-67
2022/05/20 00:56:24;;;;;;;28.20;25.60;;;;;;;18.93;78.62;101494.44;5078510;28;20764;-67
2022/05/20 00:58:51;;;;;;;30.17;27.10;;;;;;;18.79;79.37;101499.84;5077739;28;20498;-69
2022/05/20 01:01:18;;;;;;;32.23;28.87;;;;;;;18.67;78.98;101500.00;5077027;28;20488;-69
2022/05/20 01:03:43;;;;;;;31.83;28.67;;;;;;;18.95;77.60;101491.78;5077483;28;20415;-68
2022/05/20 01:06:09;;;;;;;31.90;28.50;;;;;;;18.78;77.86;101502.53;5077746;28;20848;-69
2022/05/20 01:08:34;;;;;;;30.50;27.50;;;;;;;18.72;77.30;101503.47;5077400;28;20169;-67
2022/05/20 01:11:00;;;;;;;29.93;26.90;;;;;;;18.72;76.87;101507.88;5077192;28;20584;-68
2022/05/20 01:13:27;;;;;;;29.10;26.20;;;;;;;18.70;76.99;101513.19;5077715;28;20542;-67
2022/05/20 01:15:53;;;;;;;30.87;27.73;;;;;;;18.72;76.38;101507.88;5077303;28;20176;-68
2022/05/20 01:18:18;;;;;;;30.87;27.73;;;;;;;18.59;76.58;101525.63;5076797;28;20418;-69
2022/05/20 01:20:47;;;;;;;28.60;25.67;;;;;;;18.50;76.64;101527.47;5077781;28;20781;-68
2022/05/20 01:23:18;;;;;;;28.77;25.70;;;;;;;18.44;76.03;101529.31;5077547;28;20173;-68
2022/05/20 01:25:47;;;;;;;27.50;24.63;;;;;;;17.88;76.52;101536.84;5081308;28;20426;-71
2022/05/20 01:28:13;;;;;;;27.73;25.03;;;;;;;17.74;77.38;101537.81;5081825;28;20445;-68
2022/05/20 01:30:41;;;;;;;29.27;26.37;;;;;;;17.96;75.78;101545.59;5081526;28;20430;-68
2022/05/20 01:33:08;;;;;;;27.97;25.20;;;;;;;17.82;76.09;101543.06;5080551;28;20199;-68
2022/05/20 01:35:40;;;;;;;25.47;22.90;;;;;;;17.87;74.66;101553.56;5080963;28;20411;-70
2022/05/20 01:38:07;;;;;;;28.37;24.70;;;;;;;17.65;73.34;101551.06;5080383;28;20411;-68
2022/05/20 01:40:49;;;;;;;28.30;25.20;;;;;;;17.48;74.92;101562.59;5080533;28;20403;-68
2022/05/20 01:43:26;;;;;;;24.77;22.37;;;;;;;17.28;73.96;101562.72;5080710;28;20419;-68
2022/05/20 01:45:58;;;;;;;24.90;22.50;;;;;;;17.15;74.13;101561.88;5080609;28;20381;-68
2022/05/20 01:48:35;;;;;;;26.43;23.07;;;;;;;17.43;73.90;101564.38;5080438;28;20543;-67
2022/05/20 01:51:05;;;;;;;25.33;22.63;;;;;;;17.38;73.58;101571.44;5080639;28;20411;-68
2022/05/20 01:53:33;;;;;;;25.07;22.57;;;;;;;17.19;74.08;101564.53;5080464;28;20390;-68
2022/05/20 01:56:14;;;;;;;23.70;21.50;;;;;;;17.56;73.21;101566.94;5080708;28;20417;-68
2022/05/20 01:58:57;;;;;;;23.97;21.67;;;;;;;17.01;74.17;101568.97;5080303;28;20417;-68
2022/05/20 02:01:29;;;;;;;25.27;21.73;;;;;;;17.02;75.57;101572.47;5079764;28;20809;-68
2022/05/20 02:03:57;;;;;;;24.03;21.57;;;;;;;17.07;75.12;101579.47;5079632;28;20419;-68
2022/05/20 02:06:25;;;;;;;23.50;21.10;;;;;;;17.24;74.65;101586.44;5079377;28;20426;-69
2022/05/20 02:09:02;;;;;;;23.40;21.10;;;;;;;17.12;73.92;101595.28;5080138;28;20386;-69
2022/05/20 02:11:51;;;;;;;21.30;19.07;;;;;;;17.28;73.08;101590.84;5080404;28;20850;-67
2022/05/20 02:14:28;;;;;;;20.30;17.50;;;;;;;17.20;73.03;101595.22;5079560;28;20472;-68
2022/05/20 02:17:07;;;;;;;18.97;16.83;;;;;;;17.06;72.58;101590.03;5080246;28;20421;-67
2022/05/20 02:19:38;;;;;;;19.47;17.23;;;;;;;16.75;73.43;101593.63;5080243;28;20415;-68
2022/05/20 02:22:06;;;;;;;18.50;16.70;;;;;;;16.71;73.85;101583.97;5079365;28;20507;-68
2022/05/20 02:24:33;;;;;;;20.67;17.13;;;;;;;16.84;74.36;101588.31;5079322;28;20690;-68
2022/05/20 02:27:01;;;;;;;18.90;17.10;;;;;;;16.77;74.53;101594.47;5079323;28;20415;-68
2022/05/20 02:29:31;;;;;;;19.63;17.83;;;;;;;17.08;73.06;101591.78;5080289;28;20434;-68
2022/05/20 02:32:03;;;;;;;19.07;17.17;;;;;;;16.67;74.03;101588.34;5078965;28;20454;-68
2022/05/20 02:34:29;;;;;;;18.23;16.43;;;;;;;16.71;74.13;101588.34;5079494;28;20386;-68
2022/05/20 02:36:54;;;;;;;17.70;15.70;;;;;;;16.93;73.37;101591.84;5078103;28;20469;-67
2022/05/20 02:39:21;;;;;;;23.63;15.90;;;;;;;16.60;74.28;101604.16;5079706;28;20397;-69
2022/05/20 02:41:47;;;;;;;17.57;14.80;;;;;;;16.72;73.17;101604.13;5079803;28;20165;-68
2022/05/20 02:44:13;;;;;;;15.87;14.33;;;;;;;16.87;72.04;101610.25;5079478;28;20427;-68
2022/05/20 02:46:39;;;;;;;16.13;13.97;;;;;;;16.52;73.03;101611.19;5078496;28;20445;-67
2022/05/20 02:49:05;;;;;;;12.60;11.50;;;;;;;16.75;72.51;101613.78;5079938;28;20545;-68
2022/05/20 02:51:31;;;;;;;12.30;11.10;;;;;;;16.22;72.39;101605.06;5078652;28;20451;-67
2022/05/20 02:53:56;;;;;;;12.10;10.43;;;;;;;16.54;71.48;101607.69;5079181;28;20207;-68
2022/05/20 02:56:22;;;;;;;11.43;10.27;;;;;;;16.35;72.29;101613.84;5079902;28;20172;-68
2022/05/20 03:04:15;;;;;;;10.43;9.43;;;;;;;16.36;72.08;101600.69;5079160;28;20464;-67
2022/05/20 03:06:40;;;;;;;11.83;9.30;;;;;;;16.37;72.25;101612.94;5079053;28;20690;-68
2022/05/20 03:09:07;;;;;;;13.33;9.87;;;;;;;15.85;73.14;101618.19;5079057;28;20431;-68
2022/05/20 03:11:39;;;;;;;10.70;9.63;;;;;;;15.92;72.91;101615.56;5078976;28;20203;-68
2022/05/20 03:14:04;;;;;;;9.80;8.90;;;;;;;16.07;71.52;101619.94;5079559;28;20409;-68
2022/05/20 03:16:31;;;;;;;9.97;8.70;;;;;;;15.95;71.78;101620.84;5078971;28;20386;-68
2022/05/20 03:18:57;;;;;;;10.37;9.20;;;;;;;16.29;70.93;101618.22;5078961;28;20168;-67
2022/05/20 03:21:22;;;;;;;10.70;9.10;;;;;;;15.81;71.83;101615.53;5079361;28;20733;-68
2022/05/20 03:23:47;;;;;;;10.80;9.80;;;;;;;15.97;71.68;101623.47;5078749;28;20169;-68
2022/05/20 03:26:15;;;;;;;10.73;9.00;;;;;;;16.08;71.27;101621.72;5078666;28;20557;-69
2022/05/20 03:28:41;;;;;;;8.70;7.70;;;;;;;16.03;70.68;101630.47;5079268;28;20657;-69
2022/05/20 03:31:07;;;;;;;8.70;7.90;;;;;;;15.99;71.42;101626.97;5078611;28;20460;-68
2022/05/20 03:33:33;;;;;;;8.63;7.93;;;;;;;16.12;70.77;101623.47;5078522;28;20229;-68
2022/05/20 03:35:58;;;;;;;9.13;8.23;;;;;;;16.03;70.80;101623.47;5079359;28;20401;-68
2022/05/20 03:38:24;;;;;;;9.80;8.93;;;;;;;15.68;71.52;101626.00;5078698;28;20630;-68
2022/05/20 03:40:49;;;;;;;9.10;8.27;;;;;;;16.02;70.35;101627.00;5077914;28;20258;-68
2022/05/20 03:43:14;;;;;;;8.93;8.10;;;;;;;15.87;70.29;101634.84;5078959;28;20172;-67
2022/05/20 03:45:43;;;;;;;9.60;8.67;;;;;;;16.13;71.07;101629.63;5078677;28;20165;-69
2022/05/20 03:48:09;;;;;;;9.17;8.33;;;;;;;16.14;70.94;101627.00;5078051;28;20463;-68
2022/05/20 03:50:34;;;;;;;10.70;8.47;;;;;;;16.06;70.43;101634.00;5078909;28;20400;-67
2022/05/20 03:53:00;;;;;;;9.20;8.30;;;;;;;16.11;69.99;101628.72;5078119;28;20441;-67
2022/05/20 03:55:26;;;;;;;9.40;8.53;;;;;;;16.04;70.73;101619.97;5078629;28;20184;-67
2022/05/20 03:57:51;;;;;;;9.77;8.70;;;;;;;15.61;72.06;101625.09;5078884;28;20180;-68
2022/05/20 04:00:17;;;;;;;11.77;9.13;;;;;;;16.19;69.92;101621.72;5078273;28;20590;-69
2022/05/20 04:02:42;;;;;;;9.87;8.77;;;;;;;16.28;69.94;101629.63;5078068;28;20169;-67
2022/05/20 04:05:08;;;;;;;9.70;8.53;;;;;;;16.24;69.76;101634.91;5078778;28;20545;-68
2022/05/20 04:07:33;;;;;;;9.80;8.77;;;;;;;15.92;70.88;101633.09;5077740;28;20164;-69
2022/05/20 04:09:58;;;;;;;8.93;8.03;;;;;;;16.10;70.14;101627.88;5078342;28;20187;-69
2022/05/20 04:12:33;;;;;;;9.90;8.50;;;;;;;16.33;69.05;101626.97;5078609;28;20470;-68
2022/05/20 04:14:59;;;;;;;11.63;9.00;;;;;;;15.72;70.87;101633.91;5077604;28;20434;-68
2022/05/20 04:17:25;;;;;;;11.17;8.90;;;;;;;16.34;69.62;101634.00;5078239;28;20407;-68
2022/05/20 04:19:50;;;;;;;9.20;8.20;;;;;;;16.46;69.39;101626.09;5078235;28;20607;-68
2022/05/20 04:22:24;;;;;;;10.00;9.00;;;;;;;16.60;69.17;101636.63;5078691;28;20448;-68
2022/05/20 04:24:50;;;;;;;9.73;8.50;;;;;;;16.30;69.18;101638.41;5077960;28;20172;-67
2022/05/20 04:27:16;;;;;;;9.50;8.40;;;;;;;16.01;70.11;101646.25;5078091;28;20393;-68
2022/05/20 04:29:41;;;;;;;18.33;8.60;;;;;;;16.23;70.00;101641.88;5078287;28;20312;-68
2022/05/20 04:32:07;;;;;;;9.43;8.20;;;;;;;16.14;69.92;101647.13;5078360;28;20521;-67
2022/05/20 04:34:32;;;;;;;8.53;7.43;;;;;;;16.36;69.62;101653.31;5077925;28;20169;-68
2022/05/20 04:36:58;;;;;;;9.27;8.27;;;;;;;16.43;69.17;101657.69;5078333;28;20531;-69
2022/05/20 04:39:23;;;;;;;10.03;8.30;;;;;;;16.43;70.01;101667.34;5078236;28;20180;-68
2022/05/20 04:47:20;;;;;;;9.50;8.60;;;;;;;16.74;68.60;101676.09;5077691;28;20440;-67
2022/05/20 04:49:45;;;;;;;9.73;8.83;;;;;;;16.55;68.08;101672.63;5076995;28;20484;-67
2022/05/20 04:52:11;;;;;;;10.93;7.87;;;;;;;16.95;66.83;101671.72;5076737;28;20806;-67
2022/05/20 04:54:52;;;;;;;9.60;8.47;;;;;;;16.16;69.10;101680.47;5077649;28;20195;-68
2022/05/20 04:57:19;;;;;;;9.40;8.50;;;;;;;16.13;69.19;101683.09;5110529;28;20192;-67
2022/05/20 04:59:45;;;;;;;9.40;8.37;;;;;;;16.52;68.24;101680.53;5076834;28;20408;-67
2022/05/20 05:02:11;;;;;;;8.53;7.70;;;;;;;17.16;66.38;101682.22;5081307;28;20447;-67
2022/05/20 05:04:36;;;;;;;8.10;7.30;;;;;;;16.65;67.02;101684.00;5079514;28;20429;-67
2022/05/20 05:07:02;;;;;;;7.47;6.60;;;;;;;16.42;68.24;101684.00;5081308;28;20189;-68
2022/05/20 05:09:27;;;;;;;8.67;7.77;;;;;;;16.79;67.32;101684.88;5080629;28;20211;-68
2022/05/20 05:11:52;;;;;;;10.37;7.90;;;;;;;17.32;65.63;101682.19;5081003;28;20200;-68
2022/05/20 05:14:19;;;;;;;7.80;7.10;;;;;;;16.72;67.08;101696.28;5081092;28;20620;-67
2022/05/20 05:16:44;;;;;;;9.97;7.80;;;;;;;17.08;66.52;101683.13;5064160;28;20177;-67
2022/05/20 05:19:11;;;;;;;9.37;7.90;;;;;;;17.31;65.13;101677.78;5070996;28;20424;-67
2022/05/20 05:21:36;;;;;;;11.83;7.70;;;;;;;17.25;64.99;101683.06;5061087;28;20216;-68
2022/05/20 05:24:03;;;;;;;9.37;7.50;;;;;;;17.56;65.15;101690.88;5062617;28;20440;-68
2022/05/20 05:26:29;;;;;;;11.30;7.57;;;;;;;17.96;63.06;101682.78;5079957;28;20196;-69
2022/05/20 05:28:55;;;;;;;8.47;7.50;;;;;;;17.55;63.44;101692.63;5077616;28;20438;-68
2022/05/20 05:31:21;;;;;;;8.37;7.50;;;;;;;18.12;61.19;101689.72;5079211;28;20462;-66
2022/05/20 05:33:46;;;;;;;10.47;7.20;;;;;;;17.43;63.90;101688.28;5076370;28;20216;-68
2022/05/20 05:36:12;;;;;;;10.40;6.80;;;;;;;17.61;63.57;101691.72;5079407;28;20191;-68
2022/05/20 05:38:37;;;;;;;10.97;7.67;;;;;;;17.08;64.36;101691.88;5080861;28;20176;-69
2022/05/20 05:41:02;;;;;;;7.17;6.57;;;;;;;18.10;62.82;101693.25;5074425;28;20265;-69
2022/05/20 05:43:27;;;;;;;8.93;6.70;;;;;;;18.33;60.26;101707.19;5075615;28;20260;-68
2022/05/20 05:45:53;;;;;;;7.27;6.57;;;;;;;20.27;55.90;101699.75;5071877;28;20204;-68
2022/05/20 05:48:18;;;;;;;11.20;6.10;;;;;;;19.95;55.57;101703.78;5080284;28;20220;-69
2022/05/20 05:50:44;;;;;;;9.10;7.00;;;;;;;18.51;58.88;101703.50;5079546;28;20168;-66
2022/05/20 05:53:19;;;;;;;6.40;5.27;;;;;;;18.45;59.43;101714.13;5079446;28;20208;-69
2022/05/20 05:55:47;;;;;;;9.97;6.13;;;;;;;17.71;61.84;101716.28;5079946;28;20478;-68
2022/05/20 05:58:13;;;;;;;10.77;5.20;;;;;;;18.37;59.26;101721.22;5080612;28;20414;-68
2022/05/20 06:00:39;;;;;;;9.80;5.70;;;;;;;18.23;60.00;101725.72;5079479;28;20481;-66
2022/05/20 06:03:05;;;;;;;7.87;5.47;;;;;;;18.05;60.13;101724.97;5080226;28;20427;-66
2022/05/20 06:05:30;;;;;;;10.40;5.13;;;;;;;17.54;60.97;101740.09;5080681;28;20165;-64
2022/05/20 06:07:56;;;;;;;5.93;4.93;;;;;;;17.85;61.02;101740.84;5080966;28;20438;-67
2022/05/20 06:10:22;;;;;;;6.47;5.00;;;;;;;17.63;60.92;101740.94;5081848;28;20173;-67
2022/05/20 06:12:48;;;;;;;8.17;4.67;;;;;;;17.84;59.83;101744.38;5085075;28;20466;-67
2022/05/20 06:15:16;;;;;;;5.53;5.00;;;;;;;17.85;58.78;101744.34;5086573;28;20711;-66
2022/05/20 06:17:43;;;;;;;5.93;4.80;;;;;;;18.66;57.01;101741.28;5083070;28;20803;-66
2022/05/20 06:20:09;;;;;;;5.07;4.10;;;;;;;20.91;51.02;101731.44;5080958;28;20703;-66
2022/05/20 06:22:34;;;;;;;5.83;4.00;;;;;;;22.14;47.44;101731.63;5080025;28;20683;-67
2022/05/20 06:24:59;;;;;;;6.80;4.20;;;;;;;21.86;47.70;101734.88;5080771;28;20513;-67
2022/05/20 06:27:25;;;;;;;5.33;3.60;;;;;;;24.26;41.38;101722.41;5081425;28;20180;-67
2022/05/20 06:29:51;;;;;;;9.53;3.73;;;;;;;22.21;45.69;101730.56;5079959;28;20188;-67
2022/05/20 06:32:17;;;;;;;7.30;4.13;;;;;;;19.87;51.32;101743.56;5079587;28;20442;-66
2022/05/20 06:40:13;;;;;;;6.43;4.10;;;;;;;19.37;53.89;101747.69;5079657;28;20876;-66
2022/05/20 06:42:38;;;;;;;6.60;4.30;;;;;;;18.95;53.84;101745.44;5079442;28;20691;-66
2022/05/20 06:45:04;;;;;;;6.80;3.90;;;;;;;19.13;53.67;101747.03;5079567;28;20495;-68
2022/05/20 06:47:30;;;;;;;5.43;4.63;;;;;;;18.51;53.78;101742.25;5079417;28;20495;-67
2022/05/20 06:49:55;;;;;;;4.87;3.60;;;;;;;20.87;49.01;101725.31;5079477;28;20427;-67
2022/05/20 06:52:21;;;;;;;7.60;3.90;;;;;;;21.31;47.68;101720.97;5079373;28;20209;-67
2022/05/20 06:54:46;;;;;;;3.73;3.40;;;;;;;20.92;49.19;101726.13;5079413;28;20173;-67
2022/05/20 06:57:11;;;;;;;3.90;3.50;;;;;;;20.28;49.30;101726.25;5079028;28;20187;-68
2022/05/20 06:59:36;;;;;;;9.37;3.97;;;;;;;20.25;49.84;101725.41;5079685;28;20165;-68
2022/05/20 07:02:02;;;;;;;6.80;3.80;;;;;;;19.64;50.71;101735.91;5078198;28;20207;-67
2022/05/20 07:04:31;;;;;;;11.80;4.57;;;;;;;19.03;52.33;101738.31;5079268;28;20173;-66
2022/05/20 07:06:58;;;;;;;4.23;3.80;;;;;;;19.36;51.34;101733.56;5080057;28;20165;-67
2022/05/20 07:09:23;;;;;;;6.57;3.80;;;;;;;19.14;51.76;101730.28;5079995;28;20415;-66
2022/05/20 07:11:48;;;;;;;4.07;3.63;;;;;;;19.39;52.27;101730.00;5078802;28;20482;-68
2022/05/20 07:14:14;;;;;;;6.07;4.10;;;;;;;19.55;50.27;101736.00;5079551;28;20161;-67
2022/05/20 07:16:40;;;;;;;4.13;3.53;;;;;;;19.33;51.40;101733.59;5078969;28;20188;-67
2022/05/20 07:19:05;;;;;;;7.00;3.90;;;;;;;22.14;44.20;101723.66;5078765;28;20415;-67
2022/05/20 07:21:31;;;;;;;4.80;3.40;;;;;;;23.34;41.26;101722.44;5078512;28;20226;-66
2022/05/20 07:23:56;;;;;;;5.47;3.57;;;;;;;24.42;38.57;101723.63;5078611;28;20532;-68
2022/05/20 07:26:21;;;;;;;3.63;3.10;;;;;;;25.89;35.97;101724.66;5078746;28;20505;-68
2022/05/20 07:28:47;;;;;;;5.13;3.40;;;;;;;23.78;39.34;101724.72;5079020;28;20230;-66
2022/05/20 07:31:12;;;;;;;4.07;3.57;;;;;;;22.61;41.48;101722.56;5078577;28;20410;-68
2022/05/20 07:33:38;;;;;;;5.33;3.27;;;;;;;21.01;44.06;101740.97;5077726;28;20173;-67
2022/05/20 07:36:04;;;;;;;6.30;3.30;;;;;;;22.47;42.05;101730.91;5078892;28;20169;-68
2022/05/20 07:38:30;;;;;;;4.47;3.00;;;;;;;24.35;38.25;101712.31;5078491;28;20169;-68
2022/05/20 07:40:56;;;;;;;4.30;3.40;;;;;;;24.95;36.59;101708.56;5078383;28;20407;-68
2022/05/20 07:43:22;;;;;;;5.33;3.73;;;;;;;23.41;39.88;101722.25;5078586;28;20168;-66
2022/05/20 07:45:48;;;;;;;4.47;3.50;;;;;;;22.79;41.09;101727.44;5078301;28;20419;-66
2022/05/20 07:48:14;;;;;;;3.90;3.53;;;;;;;21.99;42.95;101724.88;5078327;28;20310;-68
2022/05/20 07:50:42;;;;;;;4.03;3.50;;;;;;;23.93;38.89;101719.91;5079306;28;20519;-67
2022/05/20 07:53:21;;;;;;;5.47;3.83;;;;;;;22.61;41.65;101725.22;5078147;28;20197;-70
2022/05/20 07:55:52;;;;;;;5.20;3.50;;;;;;;21.63;43.42;101721.25;5077846;28;20411;-69
2022/05/20 07:58:22;;;;;;;6.03;4.03;;;;;;;21.70;44.77;101709.59;5077553;28;20454;-71
2022/05/20 08:00:47;;;;;;;4.93;3.57;;;;;;;20.92;45.66;101725.22;5077697;28;20420;-67
2022/05/20 08:04:52;;;;;;;4.80;4.33;;;;;;;23.74;40.27;101698.25;5078577;28;20414;-67
2022/05/20 08:06:01;;;;;;;4.23;3.40;;;;;;;22.64;42.65;101711.91;5078115;28;20268;-66
2022/05/20 08:08:26;;;;;;;5.53;4.40;;;;;;;22.75;41.83;101711.63;5078062;28;20465;-66
2022/05/20 08:10:52;;;;;;;5.43;3.97;;;;;;;22.13;42.21;101708.63;5078091;28;20173;-66
2022/05/20 08:13:21;;;;;;;5.13;3.73;;;;;;;21.80;43.16;101713.81;5078401;28;20244;-66
2022/05/20 08:15:46;;;;;;;4.47;3.53;;;;;;;22.77;40.99;101710.66;5078170;28;20169;-66
2022/05/20 08:18:12;;;;;;;5.73;3.50;;;;;;;25.12;37.21;101691.97;5077938;28;20688;-66
2022/05/20 08:20:37;;;;;;;5.40;3.53;;;;;;;23.51;39.44;101694.47;5078568;28;20169;-67
2022/05/20 08:23:02;;;;;;;4.90;3.57;;;;;;;22.79;40.76;101692.88;5077880;28;20185;-67
2022/05/20 08:25:29;;;;;;;7.00;3.30;;;;;;;22.49;42.28;101692.75;5077924;28;20191;-66
2022/05/20 08:27:54;;;;;;;6.17;3.63;;;;;;;22.11;41.83;101678.59;5078298;28;20165;-67
2022/05/20 08:30:24;;;;;;;7.50;4.30;;;;;;;24.07;38.55;101667.03;5078038;28;20672;-66
2022/05/20 08:32:49;;;;;;;6.23;3.50;;;;;;;24.97;37.00;101667.56;5078807;28;20487;-67
2022/05/20 08:35:15;;;;;;;6.10;4.20;;;;;;;24.41;37.01;101670.38;5082559;28;20422;-67
2022/05/20 08:37:43;;;;;;;6.37;4.60;;;;;;;23.61;38.14;101655.13;5082074;28;20177;-67
2022/05/20 08:40:14;;;;;;;4.60;3.40;;;;;;;23.87;37.96;101639.22;5081835;28;20176;-68
2022/05/20 08:42:40;;;;;;;5.07;3.60;;;;;;;24.59;36.89;101634.25;5081457;28;20495;-67
2022/05/20 08:45:06;;;;;;;5.10;3.50;;;;;;;23.49;39.38;101646.63;5080961;28;20498;-68
2022/05/20 08:47:41;;;;;;;5.93;3.50;;;;;;;23.40;39.28;101651.34;5080727;28;20557;-68
2022/05/20 08:50:12;;;;;;;5.97;3.70;;;;;;;23.87;39.04;101636.56;5081845;28;20410;-71
2022/05/20 08:52:37;;;;;;;4.60;3.37;;;;;;;24.99;35.75;101639.06;5080713;28;20516;-69
2022/05/20 08:55:03;;;;;;;4.60;3.30;;;;;;;26.58;33.34;101641.75;5081096;28;20427;-65
2022/05/20 08:57:32;;;;;;;5.07;3.60;;;;;;;24.55;36.86;101631.69;5081545;28;20184;-67
2022/05/20 08:59:57;;;;;;;3.40;3.10;;;;;;;26.67;33.61;101618.13;5081301;28;20173;-67
2022/05/20 09:02:23;;;;;;;3.77;3.30;;;;;;;27.00;33.45;101627.44;5081685;28;20407;-66
2022/05/20 09:04:49;;;;;;;5.20;3.87;;;;;;;27.31;31.87;101624.19;5081329;28;20234;-66
2022/05/20 09:07:15;;;;;;;3.50;3.20;;;;;;;26.28;33.40;101626.94;5075132;28;20185;-69
2022/05/20 09:09:54;;;;;;;4.30;3.80;;;;;;;27.93;31.48;101612.34;5077800;28;20241;-68
2022/05/20 09:12:32;;;;;;;4.73;3.70;;;;;;;27.83;31.18;101620.88;5060911;28;20501;-67
2022/05/20 09:16:06;;;;;;;4.63;3.30;;;;;;;27.44;31.69;101618.28;5072484;28;20432;-66
2022/05/20 09:18:17;;;;;;;4.93;3.20;;;;;;;27.39;31.38;101613.16;5067801;28;20484;-68
2022/05/20 09:20:50;;;;;;;5.20;3.60;;;;;;;26.71;31.76;101625.13;5080795;28;20427;-66
2022/05/20 09:23:20;;;;;;;4.30;3.80;;;;;;;27.14;31.56;101630.31;5071001;28;20431;-67
2022/05/20 09:25:59;;;;;;;3.90;3.50;;;;;;;26.09;32.21;101634.88;5060595;28;20416;-66
2022/05/20 09:28:51;;;;;;;4.77;3.40;;;;;;;27.46;31.48;101621.78;5060916;28;20510;-67
2022/05/20 09:31:25;;;;;;;4.97;3.00;;;;;;;27.36;31.71;101621.28;5059993;28;20550;-67
2022/05/20 09:33:56;;;;;;;4.50;3.70;;;;;;;27.03;31.56;101619.25;5059850;28;20420;-67
2022/05/20 09:36:48;;;;;;;3.80;3.40;;;;;;;27.42;31.86;101609.47;5059917;28;20412;-66
2022/05/20 09:39:19;;;;;;;4.43;3.50;;;;;;;28.00;30.34;101600.41;5060036;28;20423;-67
2022/05/20 09:41:51;;;;;;;5.80;3.90;;;;;;;27.27;31.04;101601.19;5080313;28;20430;-67
2022/05/20 09:44:19;;;;;;;4.53;3.20;;;;;;;26.37;31.99;101591.81;5079713;28;20532;-67
2022/05/20 09:46:51;;;;;;;3.50;3.17;;;;;;;27.26;31.06;101578.03;5080356;28;20474;-67
2022/05/20 09:49:23;;;;;;;5.40;4.90;;;;;;;26.30;32.46;101581.44;5080618;28;20419;-67
2022/05/20 09:51:56;;;;;;;4.23;3.20;;;;;;;25.98;33.43;101573.84;5079534;28;20459;-67
2022/05/20 09:54:28;;;;;;;4.20;3.30;;;;;;;27.55;31.20;101565.09;5080349;28;20484;-67
2022/05/20 09:56:59;;;;;;;4.93;3.60;;;;;;;27.54;31.36;101564.22;5079697;28;20415;-69
2022/05/20 09:59:34;;;;;;;4.67;3.30;;;;;;;27.52;31.11;101552.72;5080508;28;20465;-68
2022/05/20 10:02:31;;;;;;;5.93;3.70;;;;;;;28.52;30.34;101544.09;5081194;28;20422;-68
2022/05/20 10:05:09;;;;;;;4.00;3.30;;;;;;;27.64;31.86;101543.19;5080157;28;20433;-67
2022/05/20 10:07:50;;;;;;;4.93;3.20;;;;;;;26.12;32.55;101543.88;5079385;28;20425;-67
2022/05/20 10:10:47;;;;;;;5.40;3.70;;;;;;;26.55;31.58;101550.00;5079405;28;20421;-69
2022/05/20 10:13:24;;;;;;;4.67;3.47;;;;;;;26.78;32.16;101553.50;5079902;28;20459;-70
2022/05/20 10:15:52;;;;;;;5.27;3.93;;;;;;;27.05;33.50;101553.16;5059124;28;20768;-65
2022/05/20 10:18:27;;;;;;;5.80;3.97;;;;;;;25.91;33.17;101550.09;5059126;28;20444;-68
2022/05/20 10:21:03;;;;;;;4.70;3.77;;;;;;;27.27;32.52;101538.75;5059775;28;20470;-69
2022/05/20 10:23:37;;;;;;;5.60;3.80;;;;;;;27.74;30.92;101530.22;5058965;28;20657;-69
2022/05/20 10:26:43;;;;;;;4.53;3.90;;;;;;;26.71;32.67;101552.00;5058972;28;20429;-67
2022/05/20 10:34:55;;;;;;;5.67;4.00;;;;;;;26.73;32.62;101550.16;5059871;28;20427;-67
2022/05/20 10:37:29;;;;;;;5.70;3.77;;;;;;;27.71;31.51;101546.44;5058795;28;20432;-67
2022/05/20 10:40:00;;;;;;;4.10;3.70;;;;;;;26.85;33.01;101546.91;5058926;28;20420;-67
2022/05/20 10:42:38;;;;;;;7.83;3.70;;;;;;;27.00;33.68;101523.06;5059458;28;20408;-68
2022/05/20 10:48:40;;;;;;;4.83;3.90;;;;;;;25.61;35.55;101529.06;5058717;28;20462;-68
2022/05/20 10:51:43;;;;;;;4.53;4.10;;;;;;;26.09;35.30;101529.78;4979198;28;20423;-68
2022/05/20 10:54:28;;;;;;;6.70;4.87;;;;;;;26.39;34.54;101519.56;5059320;28;20428;-68
2022/05/20 10:57:10;;;;;;;5.60;4.10;;;;;;;27.40;32.83;101521.19;5057556;28;20732;-67
2022/05/20 10:59:59;;;;;;;5.53;4.30;;;;;;;26.95;33.79;101517.06;5058529;28;20424;-65
2022/05/20 11:02:47;;;;;;;5.60;4.57;;;;;;;24.89;36.15;101521.16;5058406;28;20431;-68
2022/05/20 11:05:38;;;;;;;4.70;4.10;;;;;;;26.20;35.13;101512.34;5059144;28;20649;-68
2022/05/20 11:08:22;;;;;;;4.73;4.20;;;;;;;26.46;34.12;101507.63;5071228;28;20519;-66
2022/05/20 11:11:08;;;;;;;5.20;4.37;;;;;;;26.26;33.55;101513.00;5078973;28;20509;-66
2022/05/20 11:13:40;;;;;;;5.10;4.57;;;;;;;26.40;34.62;101502.59;5078523;28;20467;-66
2022/05/20 11:16:18;;;;;;;5.00;4.07;;;;;;;25.95;34.90;101514.31;5078866;28;20423;-67
2022/05/20 11:19:22;;;;;;;6.10;4.60;;;;;;;26.82;33.50;101498.91;5075478;28;20533;-67
2022/05/20 11:22:12;;;;;;;4.83;4.37;;;;;;;25.95;34.34;101503.63;5074255;28;20542;-65
2022/05/20 11:25:13;;;;;;;5.70;4.63;;;;;;;25.91;35.31;101494.84;5075083;28;20433;-65
2022/05/20 11:28:09;;;;;;;6.83;4.70;;;;;;;25.04;36.05;101497.50;5056202;28;20502;-65
2022/05/20 11:30:53;;;;;;;6.13;4.67;;;;;;;26.49;33.64;101486.09;5075131;28;20407;-67
2022/05/20 11:33:57;;;;;;;5.83;5.23;;;;;;;26.27;34.21;101480.00;5074255;28;20492;-66
2022/05/20 11:36:55;;;;;;;5.47;4.83;;;;;;;25.71;34.67;101493.91;5074856;28;20446;-65
2022/05/20 11:40:03;;;;;;;6.37;5.40;;;;;;;25.34;35.79;101490.13;5074109;28;20696;-65
2022/05/20 11:42:49;;;;;;;6.17;4.90;;;;;;;24.66;36.15;101482.03;5074754;28;20793;-66
2022/05/20 11:45:50;;;;;;;5.77;5.10;;;;;;;25.34;34.64;101478.53;5066913;28;20419;-67
2022/05/20 11:48:53;;;;;;;5.57;5.10;;;;;;;25.13;35.22;101473.13;5074828;28;20666;-68
2022/05/20 11:51:56;;;;;;;5.40;4.90;;;;;;;24.97;35.77;101453.31;5074855;28;20815;-67
2022/05/20 11:54:25;;;;;;;6.67;5.70;;;;;;;24.34;37.70;101445.88;5074709;28;20395;-66
2022/05/20 11:56:56;;;;;;;5.67;5.17;;;;;;;23.99;38.54;101448.91;5074291;28;20572;-65
2022/05/20 11:59:31;;;;;;;7.47;5.30;;;;;;;24.23;38.20;101446.28;5073913;28;20513;-66
2022/05/20 12:01:59;;;;;;;7.70;5.70;;;;;;;23.36;39.15;101453.66;5073518;28;20442;-66